Time;durP1;ratioP1;P1;durP2;ratioP2;P2;SDS_P1;SDS_P2;PMS_P1;PMS_P2;Temp;Humidity;BMP_temperature;BMP_pressure;BME280_temperature;BME280_humidity;BME280_pressure;Samples;Min_cycle;Max_cycle;Signal;HPM_P1;HPM_P2
2023/01/04 00:10:03;;;;;;;11.57;2.13;;;;;;;;;;5114653;28;20479;-96
2023/01/04 00:12:46;;;;;;;12.45;1.90;;;;;;;;;;5063928;28;20044;-96
2023/01/04 00:18:04;;;;;;;14.32;2.22;;;;;;;;;;5259908;22;20053;-96
2023/01/04 00:23:46;;;;;;;15.02;2.17;;;;;;;;;;5148614;27;20051;-96
2023/01/04 00:26:20;;;;;;;20.42;2.78;;;;;;;;;;5133607;27;20043;-96
2023/01/04 00:32:05;;;;;;;12.82;1.88;;;;;;;;;;5142399;27;20027;-96
2023/01/04 00:34:36;;;;;;;13.93;2.40;;;;;;;;;;5128008;27;20022;-96
2023/01/04 00:37:02;;;;;;;10.40;2.28;;;;;;;;;;5124810;27;20067;-96
2023/01/04 00:39:28;;;;;;;16.42;2.67;;;;;;;;;;5110398;27;20051;-96
2023/01/04 00:42:03;;;;;;;15.60;2.53;;;;;;;;;;5120875;27;20545;-96
2023/01/04 00:44:29;;;;;;;10.98;2.30;;;;;;;;;;5122376;27;20023;-96
2023/01/04 00:46:55;;;;;;;14.43;2.30;;;;;;;;;;5118736;27;20069;-96
2023/01/04 00:49:20;;;;;;;18.77;2.65;;;;;;;;;;5119584;27;20102;-95
2023/01/04 00:51:45;;;;;;;11.15;2.28;;;;;;;;;;5119485;27;20019;-96
2023/01/04 00:54:12;;;;;;;19.35;3.45;;;;;;;;;;5118433;27;20019;-96
2023/01/04 00:56:37;;;;;;;13.70;2.15;;;;;;;;;;5118485;27;20053;-96
2023/01/04 00:59:03;;;;;;;16.42;3.42;;;;;;;;;;5119145;27;20070;-96
2023/01/04 01:01:30;;;;;;;12.50;2.40;;;;;;;;;;5118816;27;20079;-96
2023/01/04 01:03:56;;;;;;;19.73;2.97;;;;;;;;;;5118001;27;20015;-96
2023/01/04 01:06:23;;;;;;;14.80;2.90;;;;;;;;;;5118433;27;20059;-95
2023/01/04 01:08:49;;;;;;;20.00;3.35;;;;;;;;;;5117781;27;20019;-96
2023/01/04 01:11:14;;;;;;;15.85;3.15;;;;;;;;;;5117335;27;20011;-96
2023/01/04 01:13:39;;;;;;;24.92;3.20;;;;;;;;;;5117311;27;20476;-95
2023/01/04 01:16:09;;;;;;;19.70;3.85;;;;;;;;;;5117231;27;20495;-96
2023/01/04 01:18:36;;;;;;;19.10;3.42;;;;;;;;;;5117461;27;20019;-96
2023/01/04 01:21:05;;;;;;;16.58;3.33;;;;;;;;;;5118417;27;20023;-96
2023/01/04 01:23:30;;;;;;;16.15;2.95;;;;;;;;;;5117675;27;20026;-96
2023/01/04 01:25:58;;;;;;;18.20;2.67;;;;;;;;;;5117244;27;20016;-96
2023/01/04 01:28:24;;;;;;;28.75;3.35;;;;;;;;;;5117155;27;20019;-96
2023/01/04 01:30:50;;;;;;;15.93;3.40;;;;;;;;;;5116925;27;20019;-96
2023/01/04 01:33:15;;;;;;;17.73;3.03;;;;;;;;;;5118117;27;20023;-96
2023/01/04 01:35:41;;;;;;;21.60;3.83;;;;;;;;;;5121529;27;20299;-96
2023/01/04 01:38:28;;;;;;;;;;;;;;;;;;;;;
2023/01/04 01:47:41;;;;;;;23.02;3.83;;;;;;;;;;5435221;22;20054;-96
2023/01/04 01:50:28;;;;;;;29.50;4.43;;;;;;;;;;5140611;27;20042;-96
2023/01/04 02:01:01;;;;;;;21.73;3.53;;;;;;;;;;6057375;22;20084;-96
2023/01/04 02:07:26;;;;;;;;;;;;;;;;;;;;;
2023/01/04 02:10:32;;;;;;;29.17;3.53;;;;;;;;;;5051378;28;20075;-96
2023/01/04 02:13:08;;;;;;;19.10;2.88;;;;;;;;;;5087334;28;20040;-96
2023/01/04 02:26:41;;;;;;;13.05;2.13;;;;;;;;;;5088627;28;20039;-96
2023/01/04 02:29:25;;;;;;;15.32;2.17;;;;;;;;;;5080040;28;20028;-96
2023/01/04 02:31:56;;;;;;;16.02;3.08;;;;;;;;;;5087245;28;20600;-96
2023/01/04 02:34:44;;;;;;;14.93;2.85;;;;;;;;;;5081483;28;20039;-96
2023/01/04 02:37:43;;;;;;;22.08;2.60;;;;;;;;;;5080956;28;20020;-96
2023/01/04 02:40:11;;;;;;;15.65;1.85;;;;;;;;;;5085337;28;20264;-96
2023/01/04 02:46:20;;;;;;;;;;;;;;;;;;;;;
2023/01/04 03:06:46;;;;;;;9.52;1.45;;;;;;;;;;5125504;28;20043;-95
2023/01/04 03:09:26;;;;;;;7.07;1.13;;;;;;;;;;5131393;28;20030;-96
2023/01/04 03:14:44;;;;;;;5.32;0.93;;;;;;;;;;5120878;28;20065;-95
2023/01/04 03:17:11;;;;;;;8.48;1.42;;;;;;;;;;5116943;28;20519;-96
2023/01/04 03:19:55;;;;;;;7.63;0.85;;;;;;;;;;5116452;28;20032;-96
2023/01/04 03:36:24;;;;;;;5.35;0.57;;;;;;;;;;5123221;28;20027;-96
2023/01/04 03:50:23;;;;;;;3.53;0.52;;;;;;;;;;5121458;28;20095;-96
2023/01/04 03:52:49;;;;;;;4.05;0.70;;;;;;;;;;5118694;28;20035;-96
2023/01/04 03:55:15;;;;;;;4.20;0.70;;;;;;;;;;5122858;28;20020;-96
2023/01/04 03:57:41;;;;;;;5.07;0.90;;;;;;;;;;5116361;28;20027;-96
2023/01/04 04:00:12;;;;;;;7.55;0.50;;;;;;;;;;5115545;28;20049;-96
2023/01/04 04:02:38;;;;;;;4.93;0.45;;;;;;;;;;5119663;28;20497;-96
2023/01/04 04:10:32;;;;;;;5.88;0.65;;;;;;;;;;5120024;28;20030;-96
2023/01/04 04:12:57;;;;;;;3.47;0.38;;;;;;;;;;5119642;28;20016;-96
2023/01/04 04:15:23;;;;;;;3.15;0.57;;;;;;;;;;5118076;28;20024;-96
2023/01/04 04:17:48;;;;;;;2.05;0.50;;;;;;;;;;5120671;28;20100;-96
2023/01/04 04:20:14;;;;;;;7.10;1.05;;;;;;;;;;5119088;28;20028;-96
2023/01/04 04:22:39;;;;;;;4.10;0.57;;;;;;;;;;5116614;28;20454;-96
2023/01/04 04:25:05;;;;;;;3.15;0.40;;;;;;;;;;5115946;28;20031;-96
2023/01/04 04:27:30;;;;;;;6.65;0.50;;;;;;;;;;5117042;28;20069;-96
2023/01/04 04:30:01;;;;;;;1.67;0.30;;;;;;;;;;5119005;28;20015;-96
2023/01/04 04:32:32;;;;;;;1.53;0.30;;;;;;;;;;5122063;28;20016;-96
2023/01/04 04:38:17;;;;;;;3.38;0.20;;;;;;;;;;5261296;22;20059;-96
2023/01/04 04:43:35;;;;;;;1.02;0.17;;;;;;;;;;5103143;28;20026;-96
2023/01/04 04:46:03;;;;;;;5.30;0.40;;;;;;;;;;5103003;28;20047;-95
2023/01/04 04:52:32;;;;;;;2.42;0.40;;;;;;;;;;5051789;28;20037;-96
2023/01/04 04:55:12;;;;;;;3.20;0.38;;;;;;;;;;5063965;28;20032;-96
2023/01/04 04:57:40;;;;;;;1.42;0.10;;;;;;;;;;5097565;28;20050;-96
2023/01/04 05:00:09;;;;;;;2.13;0.20;;;;;;;;;;5096748;28;20089;-96
2023/01/04 05:02:34;;;;;;;2.03;0.22;;;;;;;;;;5088222;28;20019;-96
2023/01/04 05:05:00;;;;;;;0.68;0.10;;;;;;;;;;5092954;28;20024;-95
2023/01/04 05:07:25;;;;;;;1.65;0.20;;;;;;;;;;5077683;28;20027;-95
2023/01/04 05:09:50;;;;;;;0.15;0.10;;;;;;;;;;5089192;28;20053;-96
2023/01/04 05:15:00;;;;;;;2.25;0.10;;;;;;;;;;5095074;28;20023;-96
2023/01/04 05:17:25;;;;;;;0.65;0.10;;;;;;;;;;5093632;28;20020;-96
2023/01/04 05:19:50;;;;;;;0.75;0.10;;;;;;;;;;5087964;28;20102;-96
2023/01/04 05:22:16;;;;;;;0.20;0.10;;;;;;;;;;5094275;28;20047;-96
2023/01/04 05:24:41;;;;;;;0.10;0.00;;;;;;;;;;5087369;28;20052;-96
2023/01/04 05:27:06;;;;;;;0.43;0.10;;;;;;;;;;5093541;28;20020;-96
2023/01/04 05:32:16;;;;;;;0.20;0.10;;;;;;;;;;5094674;28;20085;-96
2023/01/04 05:34:41;;;;;;;0.60;0.10;;;;;;;;;;5086812;28;20023;-96
2023/01/04 05:37:06;;;;;;;0.10;0.10;;;;;;;;;;5092880;28;20666;-96
2023/01/04 05:39:32;;;;;;;0.52;0.10;;;;;;;;;;5084578;28;20523;-96
2023/01/04 05:44:41;;;;;;;0.17;0.05;;;;;;;;;;5095371;28;20167;-95
2023/01/04 05:47:07;;;;;;;0.22;0.10;;;;;;;;;;5092487;28;20051;-96
2023/01/04 05:49:35;;;;;;;1.40;0.20;;;;;;;;;;5088309;28;20016;-96
2023/01/04 05:52:20;;;;;;;6.03;0.20;;;;;;;;;;5100374;28;20023;-96
2023/01/04 05:55:20;;;;;;;2.90;0.17;;;;;;;;;;5095817;28;20024;-96
2023/01/04 05:57:45;;;;;;;2.63;0.30;;;;;;;;;;5102436;28;20374;-96
2023/01/04 06:00:16;;;;;;;7.10;0.88;;;;;;;;;;5100056;28;20108;-96
2023/01/04 06:02:54;;;;;;;5.07;0.60;;;;;;;;;;5098523;28;20016;-96
2023/01/04 06:05:19;;;;;;;7.63;1.00;;;;;;;;;;5101094;28;20034;-96
2023/01/04 06:07:45;;;;;;;9.13;1.60;;;;;;;;;;5093576;28;20019;-96
2023/01/04 06:10:34;;;;;;;10.68;1.00;;;;;;;;;;5110713;28;20049;-96
2023/01/04 06:13:20;;;;;;;4.35;1.52;;;;;;;;;;5099078;23;20080;-96
2023/01/04 06:16:11;;;;;;;13.27;1.98;;;;;;;;;;5091005;28;20028;-96
2023/01/04 06:18:54;;;;;;;16.52;2.67;;;;;;;;;;5106460;28;20036;-96
2023/01/04 07:00:59;;;;;;;40.90;5.78;;;;;;;;;;5218852;22;20024;-96
2023/01/04 07:07:01;;;;;;;;;;;;;;;;;;;;;
2023/01/04 07:09:49;;;;;;;34.25;5.15;;;;;;;;;;5113121;28;20048;-96
2023/01/04 07:15:09;;;;;;;42.05;5.05;;;;;;;;;;5104607;28;20020;-96
2023/01/04 07:17:40;;;;;;;43.97;6.78;;;;;;;;;;5102628;28;20026;-96
2023/01/04 07:20:32;;;;;;;40.97;5.55;;;;;;;;;;5104579;28;20040;-96
2023/01/04 07:22:59;;;;;;;37.42;5.72;;;;;;;;;;5096453;28;20028;-96
2023/01/04 07:25:25;;;;;;;36.70;6.13;;;;;;;;;;5101760;28;20031;-96
2023/01/04 07:27:51;;;;;;;36.25;6.68;;;;;;;;;;5100267;28;20020;-96
2023/01/04 07:30:17;;;;;;;44.47;6.75;;;;;;;;;;5098046;28;20020;-96
2023/01/04 07:32:46;;;;;;;39.08;6.00;;;;;;;;;;5098369;28;20027;-95
2023/01/04 07:35:17;;;;;;;37.85;5.97;;;;;;;;;;5098032;28;20024;-96
2023/01/04 07:37:43;;;;;;;32.78;5.55;;;;;;;;;;5101521;28;20643;-96
2023/01/04 07:40:09;;;;;;;46.30;6.47;;;;;;;;;;5100704;28;20024;-96
2023/01/04 07:42:50;;;;;;;43.95;7.45;;;;;;;;;;5109013;28;20062;-96
2023/01/04 07:45:38;;;;;;;51.35;6.43;;;;;;;;;;5114021;28;20028;-96
2023/01/04 07:48:14;;;;;;;45.53;6.10;;;;;;;;;;5112129;28;20032;-96
2023/01/04 07:50:40;;;;;;;49.67;7.63;;;;;;;;;;5109817;28;20046;-96
2023/01/04 07:56:31;;;;;;;39.30;5.82;;;;;;;;;;5110656;28;20024;-96
2023/01/04 07:58:59;;;;;;;43.42;7.57;;;;;;;;;;5110721;28;20044;-96
2023/01/04 08:01:31;;;;;;;54.75;6.65;;;;;;;;;;5112748;28;20019;-96
2023/01/04 08:03:59;;;;;;;47.35;7.93;;;;;;;;;;5113447;28;20016;-96
2023/01/04 08:06:25;;;;;;;53.70;8.35;;;;;;;;;;5105649;28;20032;-96
2023/01/04 08:08:50;;;;;;;39.83;8.35;;;;;;;;;;5103664;28;20019;-96
2023/01/04 08:11:30;;;;;;;42.40;7.40;;;;;;;;;;5102666;28;20020;-96
2023/01/04 08:14:10;;;;;;;45.38;6.40;;;;;;;;;;5101786;28;20023;-96
2023/01/04 08:16:36;;;;;;;59.22;9.98;;;;;;;;;;5105729;28;20045;-96
2023/01/04 08:19:03;;;;;;;47.28;6.10;;;;;;;;;;5100082;28;20055;-96
2023/01/04 08:21:29;;;;;;;44.70;6.78;;;;;;;;;;5101715;28;20172;-96
2023/01/04 08:23:55;;;;;;;47.15;6.85;;;;;;;;;;5098040;28;20020;-96
2023/01/04 08:26:24;;;;;;;63.80;8.45;;;;;;;;;;5101451;28;20050;-96
2023/01/04 08:28:49;;;;;;;44.10;7.18;;;;;;;;;;5099089;28;20019;-96
2023/01/04 08:31:25;;;;;;;43.45;7.07;;;;;;;;;;5096244;28;20413;-96
2023/01/04 08:33:51;;;;;;;51.17;7.32;;;;;;;;;;5097455;28;20024;-96
2023/01/04 08:36:19;;;;;;;58.97;8.00;;;;;;;;;;5096933;28;20046;-96
2023/01/04 08:38:46;;;;;;;53.00;7.45;;;;;;;;;;5096129;28;20032;-96
2023/01/04 08:41:11;;;;;;;44.80;7.68;;;;;;;;;;5096345;28;20024;-96
2023/01/04 08:43:37;;;;;;;39.28;6.32;;;;;;;;;;5095873;28;20023;-96
2023/01/04 08:46:03;;;;;;;34.45;7.25;;;;;;;;;;5094750;28;20066;-96
2023/01/04 08:48:29;;;;;;;39.50;7.20;;;;;;;;;;5094600;28;20466;-96
2023/01/04 08:50:57;;;;;;;43.08;8.07;;;;;;;;;;5097649;28;20066;-96
2023/01/04 08:53:23;;;;;;;41.53;7.20;;;;;;;;;;5094151;28;20012;-96
2023/01/04 08:55:49;;;;;;;38.55;6.80;;;;;;;;;;5094029;28;20020;-95
2023/01/04 08:58:14;;;;;;;33.20;5.93;;;;;;;;;;5093747;28;20473;-95
2023/01/04 09:00:39;;;;;;;54.70;6.57;;;;;;;;;;5093901;28;20063;-95
2023/01/04 09:03:05;;;;;;;39.25;6.38;;;;;;;;;;5093500;28;20027;-95
2023/01/04 09:05:31;;;;;;;47.25;6.93;;;;;;;;;;5094107;28;20074;-96
2023/01/04 09:07:58;;;;;;;54.83;8.60;;;;;;;;;;5095532;28;20011;-96
2023/01/04 09:10:23;;;;;;;37.47;6.85;;;;;;;;;;5094610;28;20020;-94
2023/01/04 09:12:48;;;;;;;45.17;7.22;;;;;;;;;;5098227;28;20019;-95
2023/01/04 09:15:14;;;;;;;44.25;8.50;;;;;;;;;;5096075;28;20027;-94
2023/01/04 09:17:39;;;;;;;57.15;8.63;;;;;;;;;;5094660;28;20048;-96
2023/01/04 09:20:04;;;;;;;52.17;8.27;;;;;;;;;;5093577;28;20059;-95
2023/01/04 09:22:30;;;;;;;43.03;7.70;;;;;;;;;;5093792;28;20052;-96
2023/01/04 09:24:55;;;;;;;54.88;8.35;;;;;;;;;;5093444;28;20453;-95
2023/01/04 09:27:21;;;;;;;40.47;7.18;;;;;;;;;;5093119;28;20016;-95
2023/01/04 09:29:46;;;;;;;47.88;8.32;;;;;;;;;;5093902;28;20012;-96
2023/01/04 09:32:11;;;;;;;41.30;5.90;;;;;;;;;;5093591;28;20024;-95
2023/01/04 09:34:38;;;;;;;47.50;8.50;;;;;;;;;;5094032;28;20091;-94
2023/01/04 09:37:03;;;;;;;55.20;8.63;;;;;;;;;;5093422;28;20033;-94
2023/01/04 09:39:29;;;;;;;40.53;7.15;;;;;;;;;;5093319;28;20036;-95
2023/01/04 09:41:58;;;;;;;42.55;7.53;;;;;;;;;;5093120;28;20042;-94
2023/01/04 09:44:38;;;;;;;56.78;7.10;;;;;;;;;;5092524;28;20020;-94
2023/01/04 09:47:09;;;;;;;45.67;6.80;;;;;;;;;;5092232;28;20046;-95
2023/01/04 09:49:38;;;;;;;47.05;8.27;;;;;;;;;;5092210;28;20028;-94
2023/01/04 09:52:15;;;;;;;43.67;6.78;;;;;;;;;;5092227;28;20028;-96
2023/01/04 09:54:49;;;;;;;41.42;8.32;;;;;;;;;;5092230;28;20023;-94
2023/01/04 09:57:22;;;;;;;45.83;7.82;;;;;;;;;;5092684;28;20023;-95
2023/01/04 09:59:50;;;;;;;41.90;7.97;;;;;;;;;;5092871;28;20477;-94
2023/01/04 10:02:20;;;;;;;45.63;7.82;;;;;;;;;;5092353;28;20023;-95
2023/01/04 10:04:47;;;;;;;52.83;9.32;;;;;;;;;;5092755;28;20046;-94
2023/01/04 10:07:15;;;;;;;45.50;8.07;;;;;;;;;;5093311;28;20028;-94
2023/01/04 10:09:40;;;;;;;37.22;7.57;;;;;;;;;;5093630;28;20094;-94
2023/01/04 10:12:20;;;;;;;44.90;8.35;;;;;;;;;;5095951;28;20072;-95
2023/01/04 10:15:01;;;;;;;44.40;8.55;;;;;;;;;;5093320;28;20050;-95
2023/01/04 10:17:45;;;;;;;46.13;7.63;;;;;;;;;;5093740;28;20469;-95
2023/01/04 10:20:11;;;;;;;52.38;8.48;;;;;;;;;;5093370;28;20028;-95
2023/01/04 10:22:55;;;;;;;50.85;8.57;;;;;;;;;;5094670;28;20028;-95
2023/01/04 10:25:28;;;;;;;35.13;6.60;;;;;;;;;;5093848;28;20020;-96
2023/01/04 10:28:05;;;;;;;52.10;7.70;;;;;;;;;;5093572;28;20012;-96
2023/01/04 10:30:37;;;;;;;42.92;6.75;;;;;;;;;;5092937;28;20020;-96
2023/01/04 10:33:12;;;;;;;42.97;8.00;;;;;;;;;;5092542;28;20020;-96
2023/01/04 10:35:39;;;;;;;48.42;8.95;;;;;;;;;;5092595;28;20115;-95
2023/01/04 10:38:11;;;;;;;50.30;7.68;;;;;;;;;;5092662;28;20024;-96
2023/01/04 10:40:38;;;;;;;40.22;7.13;;;;;;;;;;5092750;28;20024;-95
2023/01/04 10:43:03;;;;;;;49.53;8.55;;;;;;;;;;5092847;28;20067;-95
2023/01/04 10:45:40;;;;;;;43.50;8.25;;;;;;;;;;5092648;28;20020;-95
2023/01/04 10:48:05;;;;;;;47.80;8.55;;;;;;;;;;5092387;28;20537;-96
2023/01/04 10:50:37;;;;;;;53.53;10.68;;;;;;;;;;5092092;28;20042;-96
2023/01/04 10:53:09;;;;;;;41.10;7.97;;;;;;;;;;5092382;28;20427;-96
2023/01/04 10:55:42;;;;;;;39.28;7.53;;;;;;;;;;5092869;28;20119;-96
2023/01/04 10:58:07;;;;;;;31.20;7.00;;;;;;;;;;5093200;28;20024;-95
2023/01/04 11:00:36;;;;;;;43.35;7.68;;;;;;;;;;5093389;28;20501;-95
2023/01/04 11:03:08;;;;;;;46.47;8.52;;;;;;;;;;5092501;28;20064;-96
2023/01/04 11:05:33;;;;;;;;;;;;;;;;;;5092582;28;20031;-95
2023/01/04 11:08:01;;;;;;;42.10;7.37;;;;;;;;;;5092361;28;19904;-96
2023/01/04 11:10:29;;;;;;;45.05;7.70;;;;;;;;;;5092279;28;20302;-96
2023/01/04 11:12:54;;;;;;;36.13;6.68;;;;;;;;;;5091877;28;20024;-95
2023/01/04 11:15:19;;;;;;;43.92;7.20;;;;;;;;;;5091857;28;20067;-95
2023/01/04 11:17:46;;;;;;;43.00;6.78;;;;;;;;;;5093396;28;20024;-96
2023/01/04 11:20:11;;;;;;;48.33;7.20;;;;;;;;;;5097890;28;20071;-95
2023/01/04 11:22:41;;;;;;;46.28;7.80;;;;;;;;;;5096988;28;20016;-96
2023/01/04 11:25:09;;;;;;;55.42;7.45;;;;;;;;;;5095586;28;20057;-96
2023/01/04 11:27:39;;;;;;;42.97;8.80;;;;;;;;;;5095509;28;20110;-96
2023/01/04 11:30:15;;;;;;;49.35;7.43;;;;;;;;;;5095410;28;20047;-96
2023/01/04 11:32:51;;;;;;;41.70;7.75;;;;;;;;;;5095606;28;20047;-95
2023/01/04 11:35:35;;;;;;;43.97;7.18;;;;;;;;;;5095564;28;20033;-95
2023/01/04 11:38:16;;;;;;;52.50;8.00;;;;;;;;;;5096298;28;20032;-96
2023/01/04 11:40:52;;;;;;;34.28;5.90;;;;;;;;;;5096704;28;20098;-96
2023/01/04 11:43:19;;;;;;;32.15;5.80;;;;;;;;;;5096692;28;20350;-95
2023/01/04 11:46:03;;;;;;;38.30;6.53;;;;;;;;;;5079231;28;20028;-96
2023/01/04 11:48:34;;;;;;;40.60;6.85;;;;;;;;;;5095837;28;20020;-96
2023/01/04 11:51:00;;;;;;;46.05;6.70;;;;;;;;;;5095586;28;20045;-96
2023/01/04 11:53:25;;;;;;;42.85;7.80;;;;;;;;;;5095359;28;20028;-96
2023/01/04 11:56:06;;;;;;;28.88;6.53;;;;;;;;;;5094813;28;20020;-96
2023/01/04 11:58:31;;;;;;;39.03;6.18;;;;;;;;;;5094799;28;20028;-96
2023/01/04 12:00:56;;;;;;;43.25;6.18;;;;;;;;;;5097629;28;20466;-94
2023/01/04 12:03:34;;;;;;;47.35;7.03;;;;;;;;;;5097475;28;20101;-95
2023/01/04 12:06:00;;;;;;;40.28;6.65;;;;;;;;;;5097214;28;20024;-95
2023/01/04 12:08:33;;;;;;;32.60;6.55;;;;;;;;;;5095842;28;20023;-94
2023/01/04 12:10:59;;;;;;;28.08;4.75;;;;;;;;;;5095670;28;20020;-95
2023/01/04 12:13:24;;;;;;;23.95;4.65;;;;;;;;;;5095536;28;20024;-94
2023/01/04 12:16:06;;;;;;;20.88;4.15;;;;;;;;;;5094429;28;20114;-95
2023/01/04 12:18:40;;;;;;;27.23;4.40;;;;;;;;;;5094175;28;20023;-95
2023/01/04 12:21:08;;;;;;;35.55;5.55;;;;;;;;;;5094520;28;20488;-94
2023/01/04 12:23:33;;;;;;;43.13;7.55;;;;;;;;;;5094356;28;20020;-94
2023/01/04 12:25:59;;;;;;;40.70;6.22;;;;;;;;;;5094138;28;20070;-95
2023/01/04 12:28:35;;;;;;;34.85;6.32;;;;;;;;;;5093788;28;20512;-95
2023/01/04 12:31:19;;;;;;;42.33;7.10;;;;;;;;;;5094103;28;20016;-95
2023/01/04 12:33:46;;;;;;;40.92;6.45;;;;;;;;;;5094132;28;20032;-94
2023/01/04 12:36:12;;;;;;;42.80;7.47;;;;;;;;;;5094088;28;20428;-94
2023/01/04 12:38:53;;;;;;;33.03;6.47;;;;;;;;;;5094317;28;20024;-95
2023/01/04 12:41:18;;;;;;;35.40;6.65;;;;;;;;;;5094184;28;20032;-94
2023/01/04 12:43:46;;;;;;;47.30;8.85;;;;;;;;;;5094005;28;20035;-94
2023/01/04 12:49:13;;;;;;;;;;;;;;;;;;5095365;28;20081;-94
2023/01/04 12:51:39;;;;;;;46.60;7.27;;;;;;;;;;5093918;28;19994;-96
2023/01/04 12:54:04;;;;;;;61.53;9.57;;;;;;;;;;5093441;28;20359;-95
2023/01/04 12:56:49;;;;;;;39.53;8.23;;;;;;;;;;5093389;28;20024;-96
2023/01/04 12:59:29;;;;;;;48.40;8.65;;;;;;;;;;5093331;28;20028;-96
2023/01/04 13:02:18;;;;;;;46.67;8.90;;;;;;;;;;5094077;28;20020;-96
2023/01/04 13:04:44;;;;;;;34.15;6.13;;;;;;;;;;5085561;28;20051;-96
2023/01/04 13:07:36;;;;;;;56.08;8.45;;;;;;;;;;5095343;28;20028;-95
2023/01/04 13:10:17;;;;;;;40.17;6.63;;;;;;;;;;5091562;28;20020;-94
2023/01/04 13:12:42;;;;;;;38.83;7.20;;;;;;;;;;5093575;28;20107;-96
2023/01/04 13:15:31;;;;;;;40.10;6.70;;;;;;;;;;5093402;28;20105;-96
2023/01/04 13:17:56;;;;;;;44.70;8.15;;;;;;;;;;5085433;28;20031;-94
2023/01/04 13:20:24;;;;;;;44.65;7.32;;;;;;;;;;5093624;28;20032;-95
2023/01/04 13:22:54;;;;;;;36.95;6.78;;;;;;;;;;5093207;28;20034;-94
2023/01/04 13:25:21;;;;;;;44.90;8.80;;;;;;;;;;5093305;28;20243;-95
2023/01/04 13:27:57;;;;;;;47.22;6.88;;;;;;;;;;5093728;28;20535;-96
2023/01/04 13:30:28;;;;;;;38.13;6.38;;;;;;;;;;5094228;28;20020;-96
2023/01/04 13:32:54;;;;;;;38.55;7.10;;;;;;;;;;5093580;28;20032;-95
2023/01/04 13:35:19;;;;;;;35.53;7.18;;;;;;;;;;5095022;28;20386;-94
2023/01/04 13:37:47;;;;;;;35.88;6.50;;;;;;;;;;5094089;28;20058;-95
2023/01/04 13:40:24;;;;;;;38.60;7.13;;;;;;;;;;5094662;28;20031;-95
2023/01/04 13:42:57;;;;;;;40.30;6.20;;;;;;;;;;5094213;28;20066;-95
2023/01/04 13:45:25;;;;;;;42.38;6.88;;;;;;;;;;5093494;28;20389;-95
2023/01/04 13:47:54;;;;;;;33.08;6.68;;;;;;;;;;5094118;28;20024;-95
2023/01/04 13:50:28;;;;;;;42.10;7.72;;;;;;;;;;5094456;28;20100;-95
2023/01/04 13:52:53;;;;;;;43.75;6.63;;;;;;;;;;5093983;28;20039;-96
2023/01/04 13:55:20;;;;;;;41.90;8.80;;;;;;;;;;5093533;28;20474;-95
2023/01/04 13:58:06;;;;;;;33.58;6.28;;;;;;;;;;5093276;28;20047;-94
2023/01/04 14:00:43;;;;;;;34.63;6.25;;;;;;;;;;5092781;28;20544;-96
2023/01/04 14:03:16;;;;;;;39.20;6.57;;;;;;;;;;5093851;28;20012;-95
2023/01/04 14:05:46;;;;;;;48.40;9.27;;;;;;;;;;5093265;28;20052;-95
2023/01/04 14:08:11;;;;;;;50.72;7.90;;;;;;;;;;5093143;28;20016;-94
2023/01/04 14:10:41;;;;;;;48.58;8.27;;;;;;;;;;5093073;28;20070;-96
2023/01/04 14:13:08;;;;;;;39.15;7.65;;;;;;;;;;5093282;28;20016;-95
2023/01/04 14:15:34;;;;;;;34.83;6.88;;;;;;;;;;5093750;28;20016;-95
2023/01/04 14:17:59;;;;;;;55.63;10.18;;;;;;;;;;5092999;28;20041;-96
2023/01/04 14:20:25;;;;;;;64.53;10.68;;;;;;;;;;5092793;28;20118;-96
2023/01/04 14:22:57;;;;;;;46.20;9.30;;;;;;;;;;5093124;28;20020;-95
2023/01/04 14:25:35;;;;;;;48.97;9.20;;;;;;;;;;5092866;28;20032;-94
2023/01/04 14:28:20;;;;;;;50.80;8.68;;;;;;;;;;5093099;28;20465;-95
2023/01/04 14:30:46;;;;;;;51.95;9.45;;;;;;;;;;5094428;28;20020;-94
2023/01/04 14:33:12;;;;;;;65.18;10.52;;;;;;;;;;5096475;28;20047;-95
2023/01/04 14:35:37;;;;;;;63.78;9.10;;;;;;;;;;5096422;28;20023;-93
2023/01/04 14:38:04;;;;;;;54.65;10.73;;;;;;;;;;5097193;28;20266;-95
2023/01/04 14:40:30;;;;;;;47.28;10.90;;;;;;;;;;5096397;28;20035;-95
2023/01/04 14:42:56;;;;;;;48.38;9.15;;;;;;;;;;5096368;28;20016;-95
2023/01/04 14:45:21;;;;;;;56.95;9.73;;;;;;;;;;5096584;28;20027;-94
2023/01/04 14:47:46;;;;;;;56.50;9.15;;;;;;;;;;5093830;28;20062;-95
2023/01/04 14:50:12;;;;;;;52.72;9.90;;;;;;;;;;5092217;28;20355;-95
2023/01/04 14:52:38;;;;;;;64.53;12.73;;;;;;;;;;5095453;28;20027;-95
2023/01/04 14:55:04;;;;;;;60.00;10.02;;;;;;;;;;5096057;28;20465;-95
2023/01/04 14:57:30;;;;;;;52.75;9.68;;;;;;;;;;5095965;28;20027;-96
2023/01/04 14:59:55;;;;;;;56.17;9.90;;;;;;;;;;5095895;28;20115;-95
2023/01/04 15:02:22;;;;;;;55.55;10.07;;;;;;;;;;5096273;28;20024;-95
2023/01/04 15:04:47;;;;;;;54.15;8.65;;;;;;;;;;5095864;28;20085;-95
2023/01/04 15:07:42;;;;;;;59.60;9.98;;;;;;;;;;5095472;28;20549;-96
2023/01/04 15:10:18;;;;;;;48.72;8.75;;;;;;;;;;5082708;28;20035;-95
2023/01/04 15:12:44;;;;;;;55.10;8.98;;;;;;;;;;5096089;28;20024;-95
2023/01/04 15:15:10;;;;;;;52.45;8.07;;;;;;;;;;5096450;28;20103;-95
2023/01/04 15:17:36;;;;;;;68.90;11.05;;;;;;;;;;5096412;28;20418;-94
2023/01/04 15:20:01;;;;;;;65.05;11.50;;;;;;;;;;5096358;28;20035;-95
2023/01/04 15:22:26;;;;;;;69.32;11.75;;;;;;;;;;5095647;28;20024;-96
2023/01/04 15:24:52;;;;;;;69.85;11.38;;;;;;;;;;5094794;28;20488;-96
2023/01/04 15:27:17;;;;;;;53.92;10.27;;;;;;;;;;5095522;28;20062;-95
2023/01/04 15:29:42;;;;;;;67.15;10.23;;;;;;;;;;5095730;28;20024;-96
2023/01/04 15:32:08;;;;;;;51.97;9.43;;;;;;;;;;5098349;28;20026;-95
2023/01/04 15:34:33;;;;;;;51.42;9.50;;;;;;;;;;5097550;28;20182;-94
2023/01/04 15:36:58;;;;;;;64.55;9.75;;;;;;;;;;5098250;28;20012;-96
2023/01/04 15:39:24;;;;;;;59.50;9.57;;;;;;;;;;5100396;28;20043;-96
2023/01/04 15:44:33;;;;;;;57.60;9.63;;;;;;;;;;5102306;28;20031;-95
2023/01/04 15:46:58;;;;;;;60.25;11.82;;;;;;;;;;5101090;28;20016;-95
2023/01/04 15:49:24;;;;;;;62.80;10.68;;;;;;;;;;5101259;28;20078;-96
2023/01/04 15:51:49;;;;;;;61.28;11.68;;;;;;;;;;5095765;28;20020;-95
2023/01/04 15:54:16;;;;;;;62.58;10.13;;;;;;;;;;5097180;28;20110;-96
2023/01/04 15:56:41;;;;;;;50.90;10.02;;;;;;;;;;5095742;28;20016;-96
2023/01/04 15:59:06;;;;;;;58.30;10.77;;;;;;;;;;5095424;28;20393;-96
2023/01/04 16:01:32;;;;;;;55.05;8.50;;;;;;;;;;5095639;28;20043;-96
2023/01/04 16:03:57;;;;;;;50.35;8.02;;;;;;;;;;5098595;28;20028;-96
2023/01/04 16:06:22;;;;;;;56.03;10.10;;;;;;;;;;5102340;28;20030;-96
2023/01/04 16:08:51;;;;;;;62.80;10.27;;;;;;;;;;5104150;28;20103;-96
2023/01/04 16:11:21;;;;;;;55.72;9.70;;;;;;;;;;5102816;28;20046;-96
2023/01/04 16:13:47;;;;;;;73.03;10.68;;;;;;;;;;5101479;28;20470;-95
2023/01/04 16:16:13;;;;;;;64.35;11.25;;;;;;;;;;5101650;28;20020;-96
2023/01/04 16:18:43;;;;;;;67.60;11.65;;;;;;;;;;5103964;28;20036;-96
2023/01/04 16:21:09;;;;;;;58.47;9.30;;;;;;;;;;5102735;28;20016;-96
2023/01/04 16:23:35;;;;;;;60.15;10.30;;;;;;;;;;5102866;28;20039;-96
2023/01/04 16:26:08;;;;;;;52.65;9.85;;;;;;;;;;5101772;28;20133;-96
2023/01/04 16:28:33;;;;;;;57.33;11.07;;;;;;;;;;5102128;28;20359;-95
2023/01/04 16:30:59;;;;;;;65.75;10.48;;;;;;;;;;5102121;28;20119;-95
2023/01/04 16:33:25;;;;;;;62.03;9.82;;;;;;;;;;5103228;28;20027;-96
2023/01/04 16:35:57;;;;;;;68.00;10.68;;;;;;;;;;5101323;28;20020;-96
2023/01/04 16:38:22;;;;;;;70.13;11.90;;;;;;;;;;5099783;28;20375;-95
2023/01/04 16:40:54;;;;;;;64.40;10.13;;;;;;;;;;5098268;28;20035;-96
2023/01/04 16:43:20;;;;;;;66.38;9.77;;;;;;;;;;5102708;28;20504;-95
2023/01/04 16:45:45;;;;;;;84.22;13.02;;;;;;;;;;5102554;28;20020;-96
2023/01/04 16:48:11;;;;;;;72.43;10.30;;;;;;;;;;5101957;28;20074;-96
2023/01/04 16:50:40;;;;;;;64.03;10.07;;;;;;;;;;5108677;28;20016;-95
2023/01/04 16:53:05;;;;;;;61.10;10.45;;;;;;;;;;5109083;28;20016;-95
2023/01/04 16:55:31;;;;;;;77.65;11.90;;;;;;;;;;5106317;28;20023;-95
2023/01/04 16:57:56;;;;;;;77.22;11.70;;;;;;;;;;5105743;28;20083;-94
2023/01/04 17:00:22;;;;;;;78.38;10.95;;;;;;;;;;5105448;28;20032;-96
2023/01/04 17:02:48;;;;;;;72.80;10.30;;;;;;;;;;5108742;28;20023;-96
2023/01/04 17:05:13;;;;;;;59.33;11.75;;;;;;;;;;5109920;28;20000;-96
2023/01/04 17:07:39;;;;;;;75.75;12.10;;;;;;;;;;5109976;28;20052;-94
2023/01/04 17:10:04;;;;;;;73.68;11.43;;;;;;;;;;5110980;28;20046;-95
2023/01/04 17:12:30;;;;;;;70.20;11.00;;;;;;;;;;5110445;28;20107;-95
2023/01/04 17:14:57;;;;;;;70.03;11.88;;;;;;;;;;5109042;28;20027;-95
2023/01/04 17:17:23;;;;;;;62.50;10.27;;;;;;;;;;5105943;28;20020;-94
2023/01/04 17:19:48;;;;;;;61.10;11.00;;;;;;;;;;5109068;28;20031;-96
2023/01/04 17:22:14;;;;;;;71.75;11.05;;;;;;;;;;5109866;28;20023;-96
2023/01/04 17:24:39;;;;;;;69.60;10.68;;;;;;;;;;5110842;28;20433;-95
2023/01/04 17:27:04;;;;;;;64.30;10.55;;;;;;;;;;5108831;28;20023;-94
2023/01/04 17:29:30;;;;;;;62.97;10.32;;;;;;;;;;5110920;28;20417;-94
2023/01/04 17:32:01;;;;;;;64.43;12.13;;;;;;;;;;5110385;28;20016;-96
2023/01/04 17:34:26;;;;;;;76.57;11.15;;;;;;;;;;5105477;28;20024;-95
2023/01/04 17:36:52;;;;;;;76.68;10.45;;;;;;;;;;5105504;28;20428;-95
2023/01/04 17:39:19;;;;;;;58.20;9.48;;;;;;;;;;5106491;28;20059;-94
2023/01/04 17:41:45;;;;;;;52.80;9.73;;;;;;;;;;5104223;28;20465;-95
2023/01/04 17:44:10;;;;;;;69.28;10.88;;;;;;;;;;5106976;28;20035;-95